createdAt,value
2016-03-28T12:33:46.552Z,959.12
2016-03-28T12:34:46.586Z,959.03
2016-03-28T12:35:46.558Z,959.05
2016-03-28T12:36:46.561Z,959.02
2016-03-28T12:37:46.578Z,958.88
2016-03-28T12:38:46.581Z,958.88
2016-03-28T12:39:46.583Z,958.9
2016-03-28T12:40:46.586Z,958.89
2016-03-28T12:41:46.586Z,959.04
2016-03-28T12:42:46.575Z,959.17
2016-03-28T12:43:46.565Z,959.12
2016-03-28T12:44:46.553Z,959.03
2016-03-28T12:45:46.543Z,959
2016-03-28T12:46:46.534Z,958.95
2016-03-28T12:47:46.532Z,958.87
2016-03-28T12:48:46.530Z,958.88
2016-03-28T12:49:46.545Z,958.99
2016-03-28T12:50:46.542Z,959.04
2016-03-28T12:51:46.541Z,959.02
2016-03-28T12:52:46.542Z,958.94
2016-03-28T12:53:46.542Z,958.91
2016-03-28T12:54:46.543Z,958.82
2016-03-28T12:55:46.545Z,958.74
2016-03-28T12:56:46.545Z,958.73
2016-03-28T12:57:46.547Z,958.69
2016-03-28T12:58:46.550Z,958.56
2016-03-28T12:59:46.553Z,958.73
2016-03-28T13:00:46.555Z,958.68
2016-03-28T13:01:46.557Z,958.64
2016-03-28T13:02:46.560Z,958.68
2016-03-28T13:03:46.562Z,958.71
2016-03-28T13:04:46.564Z,958.63
2016-03-28T13:05:46.567Z,958.57
2016-03-28T13:06:46.585Z,958.57
2016-03-28T13:07:46.588Z,958.56
2016-03-28T13:08:46.590Z,958.46
2016-03-28T13:09:46.593Z,958.43
2016-03-28T13:10:46.596Z,958.39
2016-03-28T13:11:46.598Z,958.38
2016-03-28T13:12:46.601Z,958.39
2016-03-28T13:13:46.604Z,958.38
2016-03-28T13:14:46.606Z,958.35
2016-03-28T13:15:46.609Z,958.33
2016-03-28T13:16:46.627Z,958.31
2016-03-28T13:17:46.614Z,958.31
2016-03-28T13:18:46.617Z,958.27
2016-03-28T13:19:46.620Z,958.22
2016-03-28T13:20:46.623Z,958.17
2016-03-28T13:21:46.640Z,958.23
2016-03-28T13:22:46.643Z,958.26
2016-03-28T13:23:46.645Z,958.27
2016-03-28T13:24:46.648Z,958.2
2016-03-28T13:25:46.651Z,958.16
2016-03-28T13:26:46.653Z,958.16
2016-03-28T13:27:46.656Z,958.08
2016-03-28T13:28:46.659Z,958.08
2016-03-28T13:29:46.661Z,958.14
2016-03-28T13:30:46.664Z,958.12
2016-03-28T13:31:46.667Z,958.14
2016-03-28T13:32:46.669Z,958.14
2016-03-28T13:33:46.672Z,958.24
2016-03-28T13:34:46.675Z,958.23
2016-03-28T13:35:46.678Z,958.2
2016-03-28T13:36:46.680Z,958.23
2016-03-28T13:37:46.699Z,958.23
2016-03-28T13:38:46.702Z,958.23
2016-03-28T13:39:46.704Z,958.2
2016-03-28T13:40:46.707Z,958.19
2016-03-28T13:41:46.710Z,958.13
2016-03-28T13:42:46.712Z,958.13
2016-03-28T13:43:46.715Z,958.12
2016-03-28T13:44:46.718Z,958.15
2016-03-28T13:45:46.721Z,958.13
2016-03-28T13:46:46.723Z,958.15
2016-03-28T13:47:46.726Z,958.21
2016-03-28T13:48:46.728Z,958.14
2016-03-28T13:49:46.731Z,958.12
2016-03-28T13:50:46.734Z,958.12
2016-03-28T13:51:46.736Z,958.08
2016-03-28T13:52:46.740Z,957.97
2016-03-28T13:53:46.789Z,958.01
2016-03-28T13:54:46.760Z,958
2016-03-28T13:55:46.748Z,957.93
2016-03-28T13:56:46.750Z,957.94
2016-03-28T13:57:46.753Z,958
2016-03-28T13:58:46.770Z,957.9
2016-03-28T13:59:46.773Z,957.89
2016-03-28T14:00:46.765Z,957.88
2016-03-28T14:01:46.768Z,957.94
2016-03-28T14:02:46.771Z,957.95
2016-03-28T14:03:46.773Z,957.9
2016-03-28T14:04:46.791Z,957.89
2016-03-28T14:05:46.779Z,957.96
2016-03-28T14:06:46.797Z,957.95
2016-03-28T14:07:46.801Z,957.94
2016-03-28T14:08:46.803Z,957.96
2016-03-28T14:09:46.806Z,957.96
2016-03-28T14:10:46.808Z,957.99
2016-03-28T14:11:46.811Z,958
2016-03-28T14:12:46.814Z,957.99
2016-03-28T14:13:46.817Z,957.97
2016-03-28T14:14:46.819Z,958.05
2016-03-28T14:15:46.822Z,958.04
2016-03-28T14:16:46.825Z,958.06
2016-03-28T14:17:46.827Z,958.02
2016-03-28T14:18:46.830Z,958.02
2016-03-28T14:19:46.833Z,957.96
2016-03-28T14:20:46.836Z,957.86
2016-03-28T14:21:46.870Z,957.81
2016-03-28T14:22:46.841Z,957.79
2016-03-28T14:23:46.844Z,957.76
2016-03-28T14:24:46.847Z,957.75
2016-03-28T14:25:46.849Z,957.75
2016-03-28T14:26:46.852Z,957.76
2016-03-28T14:27:46.871Z,957.77
2016-03-28T14:28:46.873Z,957.8
2016-03-28T14:29:46.876Z,957.8
2016-03-28T14:30:46.879Z,957.76
2016-03-28T14:31:46.881Z,957.73
2016-03-28T14:32:46.884Z,957.72
2016-03-28T14:33:46.887Z,957.66
2016-03-28T14:34:46.889Z,957.61
2016-03-28T14:35:46.892Z,957.6
2016-03-28T14:36:46.895Z,957.63
2016-03-28T14:37:46.898Z,957.63
2016-03-28T14:38:46.900Z,957.59
2016-03-28T14:39:46.903Z,957.61
2016-03-28T14:40:46.906Z,957.65
2016-03-28T14:41:46.908Z,957.74
2016-03-28T14:42:46.911Z,957.67
2016-03-28T14:43:46.914Z,957.67
2016-03-28T14:44:46.916Z,957.63
2016-03-28T14:45:46.919Z,957.63
2016-03-28T14:46:46.922Z,957.62
2016-03-28T14:47:46.924Z,957.6
2016-03-28T14:48:46.927Z,957.55
2016-03-28T14:49:46.930Z,957.42
2016-03-28T14:50:46.932Z,957.36
2016-03-28T14:51:46.936Z,957.32
2016-03-28T14:52:46.938Z,957.27
2016-03-28T14:53:46.941Z,957.26
2016-03-28T14:54:46.943Z,957.25
2016-03-28T14:55:46.946Z,957.24
2016-03-28T14:56:46.949Z,957.2
2016-03-28T14:57:46.952Z,957.21
2016-03-28T14:58:46.969Z,957.26
2016-03-28T14:59:46.957Z,957.25
2016-03-28T15:00:46.960Z,957.22
2016-03-28T15:01:46.962Z,957.17
2016-03-28T15:02:46.980Z,957.13
2016-03-28T15:03:46.982Z,957.06
2016-03-28T15:04:46.985Z,957.08
2016-03-28T15:05:46.988Z,957.07
2016-03-28T15:06:46.990Z,957.02
2016-03-28T15:07:46.993Z,956.97
2016-03-28T15:08:46.996Z,957
2016-03-28T15:09:46.998Z,957.01
2016-03-28T15:10:47.001Z,956.97
2016-03-28T15:11:47.004Z,956.97
2016-03-28T15:12:47.006Z,956.95
2016-03-28T15:13:47.009Z,956.97
2016-03-28T15:14:47.012Z,956.93
2016-03-28T15:15:47.015Z,956.97
2016-03-28T15:16:47.017Z,956.99
2016-03-28T15:17:47.020Z,956.98
2016-03-28T15:18:47.023Z,957.01
2016-03-28T15:19:47.025Z,957.02
2016-03-28T15:20:47.028Z,957.01
2016-03-28T15:21:47.031Z,957
2016-03-28T15:22:47.033Z,957.03
2016-03-28T15:23:47.036Z,957.07
2016-03-28T15:24:47.039Z,957
2016-03-28T15:25:47.041Z,957.04
2016-03-28T15:26:47.044Z,957.05
2016-03-28T15:27:47.047Z,956.91
2016-03-28T15:28:47.050Z,956.93
2016-03-28T15:29:47.052Z,956.95
2016-03-28T15:30:47.055Z,957.04
2016-03-28T15:31:47.058Z,956.94
2016-03-28T15:32:47.060Z,956.93
2016-03-28T15:33:47.063Z,956.93
2016-03-28T15:34:47.441Z,956.9
2016-03-28T15:35:47.068Z,956.9
2016-03-28T15:36:47.071Z,956.97
2016-03-28T15:37:47.074Z,956.91
2016-03-28T15:38:47.076Z,956.92
2016-03-28T15:39:47.079Z,956.89
2016-03-28T15:40:47.067Z,956.91
2016-03-28T15:41:47.084Z,956.94
2016-03-28T15:42:47.087Z,956.92
2016-03-28T15:43:47.090Z,956.97
2016-03-28T15:44:47.093Z,956.99
2016-03-28T15:45:47.095Z,956.97
2016-03-28T15:46:47.098Z,956.94
2016-03-28T15:47:47.101Z,956.96
2016-03-28T15:48:47.103Z,957.07
2016-03-28T15:49:47.106Z,956.98
2016-03-28T15:50:47.094Z,956.95
2016-03-28T15:51:47.111Z,956.98
2016-03-28T15:52:47.099Z,957.05
2016-03-28T15:53:47.102Z,956.99
2016-03-28T15:54:47.119Z,957.02
2016-03-28T15:55:47.107Z,957.01
2016-03-28T15:56:47.125Z,957.02
2016-03-28T15:57:47.112Z,956.94
2016-03-28T15:58:47.115Z,957.02
2016-03-28T15:59:47.118Z,956.98
2016-03-28T16:00:47.121Z,957
2016-03-28T16:01:47.123Z,956.99
2016-03-28T16:02:47.126Z,956.93
2016-03-28T16:03:47.129Z,956.92
2016-03-28T16:04:47.131Z,956.87
2016-03-28T16:05:47.134Z,956.85
2016-03-28T16:06:47.137Z,956.91
2016-03-28T16:07:47.139Z,956.87
2016-03-28T16:08:47.173Z,956.84
2016-03-28T16:09:47.145Z,956.93
2016-03-28T16:10:47.147Z,956.69
2016-03-28T16:11:47.150Z,956.74
2016-03-28T16:12:47.153Z,956.69
2016-03-28T16:13:47.155Z,956.71
2016-03-28T16:14:47.158Z,956.62
2016-03-28T16:15:47.161Z,956.63
2016-03-28T16:16:47.164Z,956.61
2016-03-28T16:17:47.166Z,956.59
2016-03-28T16:18:47.169Z,956.54
2016-03-28T16:19:47.172Z,956.58
2016-03-28T16:20:47.174Z,956.57
2016-03-28T16:21:47.177Z,956.47
2016-03-28T16:22:47.195Z,956.43
2016-03-28T16:23:47.229Z,956.42
2016-03-28T16:24:47.185Z,956.49
2016-03-28T16:25:47.169Z,956.48
2016-03-28T16:26:47.190Z,956.48
2016-03-28T16:27:47.174Z,956.45
2016-03-28T16:28:47.196Z,956.44
2016-03-28T16:29:47.198Z,956.43
2016-03-28T16:30:47.201Z,956.41
2016-03-28T16:31:47.204Z,956.42
2016-03-28T16:32:47.207Z,956.39
2016-03-28T16:33:47.209Z,956.38
2016-03-28T16:34:47.193Z,956.36
2016-03-28T16:35:47.196Z,956.29
2016-03-28T16:36:47.199Z,956.3
2016-03-28T16:37:47.201Z,956.31
2016-03-28T16:38:47.223Z,956.28
2016-03-28T16:39:47.207Z,956.34
2016-03-28T16:40:47.210Z,956.28
2016-03-28T16:41:47.212Z,956.31
2016-03-28T16:42:47.215Z,956.33
2016-03-28T16:43:47.217Z,956.3
2016-03-28T16:44:47.220Z,956.31
2016-03-28T16:45:47.223Z,956.3
2016-03-28T16:46:47.227Z,956.32
2016-03-28T16:47:47.230Z,956.38
2016-03-28T16:48:47.232Z,956.3
2016-03-28T16:49:47.235Z,956.34
2016-03-28T16:50:47.237Z,956.33
2016-03-28T16:51:47.240Z,956.38
2016-03-28T16:52:47.242Z,956.36
2016-03-28T16:53:47.230Z,956.36
2016-03-28T16:54:47.233Z,956.33
2016-03-28T16:55:47.236Z,956.38
2016-03-28T16:56:47.239Z,956.38
2016-03-28T16:57:47.242Z,956.39
2016-03-28T16:58:47.244Z,956.35
2016-03-28T16:59:47.247Z,956.37
2016-03-28T17:00:47.250Z,956.35
2016-03-28T17:01:47.252Z,956.34
2016-03-28T17:02:47.255Z,956.29
2016-03-28T17:03:47.257Z,956.31
2016-03-28T17:04:47.260Z,956.35
2016-03-28T17:05:47.262Z,956.31
2016-03-28T17:06:47.266Z,956.33
2016-03-28T17:07:47.268Z,956.34
2016-03-28T17:08:47.271Z,956.31
2016-03-28T17:09:47.274Z,956.32
2016-03-28T17:10:47.260Z,956.38
2016-03-28T17:11:47.279Z,956.41
2016-03-28T17:12:47.266Z,956.26
2016-03-28T17:13:47.268Z,956.3
2016-03-28T17:14:47.271Z,956.34
2016-03-28T17:15:47.274Z,956.35
2016-03-28T17:16:47.276Z,956.38
2016-03-28T17:17:47.280Z,956.37
2016-03-28T17:18:47.282Z,956.4
2016-03-28T17:19:47.285Z,956.37
2016-03-28T17:20:47.288Z,956.38
2016-03-28T17:21:47.306Z,956.37
2016-03-28T17:22:47.293Z,956.32
2016-03-28T17:23:47.350Z,956.38
2016-03-28T17:24:47.297Z,956.42
2016-03-28T17:25:47.300Z,956.42
2016-03-28T17:26:47.287Z,956.4
2016-03-28T17:27:47.305Z,956.43
2016-03-28T17:28:47.292Z,956.41
2016-03-28T17:29:47.295Z,956.45
2016-03-28T17:30:47.297Z,956.51
2016-03-28T17:31:47.300Z,956.52
2016-03-28T17:32:47.303Z,956.49
2016-03-28T17:33:47.305Z,956.47
2016-03-28T17:34:47.308Z,956.49
2016-03-28T17:35:47.311Z,956.48
2016-03-28T17:36:47.314Z,956.5
2016-03-28T17:37:47.316Z,956.56
2016-03-28T17:38:47.319Z,956.51
2016-03-28T17:39:47.322Z,956.56
2016-03-28T17:40:47.324Z,956.56
2016-03-28T17:41:47.312Z,956.53
2016-03-28T17:42:47.315Z,956.49
2016-03-28T17:43:47.317Z,956.51
2016-03-28T17:44:47.320Z,956.55
2016-03-28T17:45:47.323Z,956.52
2016-03-28T17:46:47.326Z,956.57
2016-03-28T17:47:47.328Z,956.54
2016-03-28T17:48:47.331Z,956.48
2016-03-28T17:49:47.333Z,956.59
2016-03-28T17:50:47.336Z,956.62
2016-03-28T17:51:47.339Z,956.57
2016-03-28T17:52:47.341Z,956.62
2016-03-28T17:53:47.343Z,956.65
2016-03-28T17:54:47.330Z,956.68
2016-03-28T17:55:47.333Z,956.7
2016-03-28T17:56:47.352Z,956.69
2016-03-28T17:57:47.339Z,956.65
2016-03-28T17:58:47.341Z,956.71
2016-03-28T17:59:47.344Z,956.73
2016-03-28T18:00:47.347Z,956.77
2016-03-28T18:01:47.350Z,956.76
2016-03-28T18:02:47.352Z,956.69
2016-03-28T18:03:47.355Z,956.74
2016-03-28T18:04:47.358Z,956.77
2016-03-28T18:05:47.344Z,956.76
2016-03-28T18:06:47.347Z,956.76
2016-03-28T18:07:47.349Z,956.72
2016-03-28T18:08:47.352Z,956.8
2016-03-28T18:09:47.355Z,956.79
2016-03-28T18:10:47.357Z,956.86
2016-03-28T18:11:47.360Z,956.89
2016-03-28T18:12:47.363Z,956.86
2016-03-28T18:13:47.366Z,956.9
2016-03-28T18:14:47.368Z,956.9
2016-03-28T18:15:47.371Z,956.93
2016-03-28T18:16:47.374Z,956.84
2016-03-28T18:17:47.361Z,956.99
2016-03-28T18:18:47.364Z,956.99
2016-03-28T18:19:47.367Z,957.04
2016-03-28T18:20:47.370Z,957.06
2016-03-28T18:21:47.372Z,957.06
2016-03-28T18:22:47.375Z,957.08
2016-03-28T18:23:47.378Z,957.14
2016-03-28T18:24:47.381Z,957.15
2016-03-28T18:25:47.367Z,957.12
2016-03-28T18:26:47.386Z,957.14
2016-03-28T18:27:47.389Z,957.02
2016-03-28T18:28:47.375Z,957.25
2016-03-28T18:29:47.378Z,957.19
2016-03-28T18:30:47.397Z,957.2
2016-03-28T18:31:47.383Z,957.31
2016-03-28T18:32:47.386Z,957.33
2016-03-28T18:33:47.389Z,957.25
2016-03-28T18:34:47.391Z,957.26
2016-03-28T18:35:47.379Z,957.31
2016-03-28T18:36:47.397Z,957.31
2016-03-28T18:37:47.384Z,957.28
2016-03-28T18:38:47.387Z,957.28
2016-03-28T18:39:47.389Z,957.26
2016-03-28T18:40:47.393Z,957.23
2016-03-28T18:41:47.395Z,957.34
2016-03-28T18:42:47.398Z,957.3
2016-03-28T18:43:47.400Z,957.29
2016-03-28T18:44:47.403Z,957.28
2016-03-28T18:45:47.406Z,957.29
2016-03-28T18:46:47.408Z,957.3
2016-03-28T18:47:47.395Z,957.32
2016-03-28T18:48:47.414Z,957.3
2016-03-28T18:49:47.401Z,957.32
2016-03-28T18:50:47.404Z,957.3
2016-03-28T18:51:47.406Z,957.27
2016-03-28T18:52:47.409Z,957.24
2016-03-28T18:53:47.411Z,957.24
2016-03-28T18:54:47.414Z,957.25
2016-03-28T18:55:47.417Z,957.23
2016-03-28T18:56:47.403Z,957.25
2016-03-28T18:57:47.406Z,957.18
2016-03-28T18:58:47.409Z,957.18
2016-03-28T18:59:47.412Z,957.24
2016-03-28T19:00:47.414Z,957.24
2016-03-28T19:01:47.417Z,957.23
2016-03-28T19:02:47.419Z,957.28
2016-03-28T19:03:47.423Z,957.22
2016-03-28T19:04:47.410Z,957.27
2016-03-28T19:05:47.412Z,957.26
2016-03-28T19:06:47.416Z,957.24
2016-03-28T19:07:47.429Z,957.22
2016-03-28T19:08:47.416Z,957.28
2016-03-28T19:09:47.420Z,957.24
2016-03-28T19:10:47.422Z,957.31
2016-03-28T19:11:47.425Z,957.36
2016-03-28T19:12:47.428Z,957.38
2016-03-28T19:13:47.430Z,957.34
2016-03-28T19:14:47.433Z,957.35
2016-03-28T19:15:47.419Z,957.39
2016-03-28T19:16:47.422Z,957.31
2016-03-28T19:17:47.424Z,957.36
2016-03-28T19:18:47.428Z,957.36
2016-03-28T19:19:47.430Z,957.38
2016-03-28T19:20:47.433Z,957.39
2016-03-28T19:21:47.436Z,957.43
2016-03-28T19:22:47.438Z,957.43
2016-03-28T19:23:47.441Z,957.45
2016-03-28T19:24:47.429Z,957.43
2016-03-28T19:25:47.431Z,957.45
2016-03-28T19:26:47.434Z,957.52
2016-03-28T19:27:47.437Z,957.51
2016-03-28T19:28:47.439Z,957.53
2016-03-28T19:29:47.443Z,957.49
2016-03-28T19:30:47.445Z,957.47
2016-03-28T19:31:47.447Z,957.43
2016-03-28T19:32:47.435Z,957.49
2016-03-28T19:33:47.437Z,957.5
2016-03-28T19:34:47.440Z,957.4
2016-03-28T19:35:47.459Z,957.38
2016-03-28T19:36:47.445Z,957.43
2016-03-28T19:37:47.448Z,957.37
2016-03-28T19:38:47.451Z,957.42
2016-03-28T19:39:47.437Z,957.46
2016-03-28T19:40:47.455Z,957.46
2016-03-28T19:41:47.459Z,957.52
2016-03-28T19:42:47.461Z,957.52
2016-03-28T19:43:47.447Z,957.5
2016-03-28T19:44:47.451Z,957.51
2016-03-28T19:45:47.453Z,957.56
2016-03-28T19:46:47.456Z,957.55
2016-03-28T19:47:47.459Z,957.52
2016-03-28T19:48:47.461Z,957.52
2016-03-28T19:49:47.464Z,957.57
2016-03-28T19:50:47.467Z,957.48
2016-03-28T19:51:47.469Z,957.49
2016-03-28T19:52:47.457Z,957.55
2016-03-28T19:53:47.460Z,957.58
2016-03-28T19:54:47.478Z,957.64
2016-03-28T19:55:47.465Z,957.6
2016-03-28T19:56:47.468Z,957.63
2016-03-28T19:57:47.471Z,957.66
2016-03-28T19:58:47.473Z,957.66
2016-03-28T19:59:47.476Z,957.67
2016-03-28T20:00:47.462Z,957.73
2016-03-28T20:01:47.465Z,957.76
2016-03-28T20:02:47.468Z,957.74
2016-03-28T20:03:47.471Z,957.75
2016-03-28T20:04:47.473Z,957.75
2016-03-28T20:05:47.476Z,957.75
2016-03-28T20:06:47.479Z,957.72
2016-03-28T20:07:47.481Z,957.69
2016-03-28T20:08:47.468Z,957.74
2016-03-28T20:09:47.487Z,957.75
2016-03-28T20:10:47.473Z,957.73
2016-03-28T20:11:47.476Z,957.78
2016-03-28T20:12:47.479Z,957.77
2016-03-28T20:13:47.482Z,957.77
2016-03-28T20:14:47.485Z,957.74
2016-03-28T20:15:47.472Z,957.77
2016-03-28T20:16:47.489Z,957.8
2016-03-28T20:17:47.478Z,957.79
2016-03-28T20:18:47.480Z,957.82
2016-03-28T20:19:47.482Z,957.88
2016-03-28T20:20:47.485Z,957.85
2016-03-28T20:21:47.488Z,957.94
2016-03-28T20:22:47.491Z,957.95
2016-03-28T20:23:47.494Z,957.98
2016-03-28T20:24:47.496Z,957.97
2016-03-28T20:25:47.482Z,957.96
2016-03-28T20:26:47.486Z,957.95
2016-03-28T20:27:47.488Z,957.96
2016-03-28T20:28:47.491Z,957.94
2016-03-28T20:29:47.493Z,957.88
2016-03-28T20:30:47.496Z,957.97
2016-03-28T20:31:47.499Z,957.92
2016-03-28T20:32:47.502Z,957.93
2016-03-28T20:33:47.489Z,957.95
2016-03-28T20:34:47.492Z,957.97
2016-03-28T20:35:47.495Z,957.96
2016-03-28T20:36:47.497Z,957.95
2016-03-28T20:37:47.500Z,957.95
2016-03-28T20:38:47.502Z,958.05
2016-03-28T20:39:47.506Z,958.05
2016-03-28T20:40:47.508Z,958.07
2016-03-28T20:41:47.495Z,958.08
2016-03-28T20:42:47.498Z,958.08
2016-03-28T20:43:47.500Z,958.08
2016-03-28T20:44:47.503Z,958.08
2016-03-28T20:45:47.506Z,958.11
2016-03-28T20:46:47.508Z,958.11
2016-03-28T20:47:47.510Z,958.15
2016-03-28T20:48:47.497Z,958.19
2016-03-28T20:49:47.500Z,958.21
2016-03-28T20:50:47.503Z,958.27
2016-03-28T20:51:47.506Z,958.28
2016-03-28T20:52:47.508Z,958.28
2016-03-28T20:53:47.511Z,958.25
2016-03-28T20:54:47.530Z,958.29
2016-03-28T20:55:47.516Z,958.29
2016-03-28T20:56:47.519Z,958.37
2016-03-28T20:57:47.507Z,958.3
2016-03-28T20:58:47.509Z,958.34
2016-03-28T20:59:47.513Z,958.35
2016-03-28T21:00:47.515Z,958.32
2016-03-28T21:01:47.517Z,958.32
2016-03-28T21:02:47.521Z,958.35
2016-03-28T21:03:47.523Z,958.27
2016-03-28T21:04:47.510Z,958.3
2016-03-28T21:05:47.512Z,958.41
2016-03-28T21:06:47.515Z,958.4
2016-03-28T21:07:47.517Z,958.48
2016-03-28T21:08:47.521Z,958.43
2016-03-28T21:09:47.539Z,958.45
2016-03-28T21:10:47.525Z,958.45
2016-03-28T21:11:47.528Z,958.42
2016-03-28T21:12:47.531Z,958.55
2016-03-28T21:13:47.518Z,958.53
2016-03-28T21:14:47.521Z,958.54
2016-03-28T21:15:47.523Z,958.46
2016-03-28T21:16:47.526Z,958.57
2016-03-28T21:17:47.529Z,958.58
2016-03-28T21:18:47.531Z,958.51
2016-03-28T21:19:47.534Z,958.52
2016-03-28T21:20:47.521Z,958.49
2016-03-28T21:21:47.525Z,958.49
2016-03-28T21:22:47.527Z,958.55
2016-03-28T21:23:47.529Z,958.49
2016-03-28T21:24:47.532Z,958.57
2016-03-28T21:25:47.535Z,958.46
2016-03-28T21:26:47.538Z,958.58
2016-03-28T21:27:47.541Z,958.52
2016-03-28T21:28:47.527Z,958.51
2016-03-28T21:29:47.530Z,958.51
2016-03-28T21:30:47.533Z,958.46
2016-03-28T21:31:47.535Z,958.54
2016-03-28T21:32:47.537Z,958.61
2016-03-28T21:33:47.540Z,958.46
2016-03-28T21:34:47.543Z,958.53
2016-03-28T21:35:47.546Z,958.6
2016-03-28T21:36:47.534Z,958.47
2016-03-28T21:37:47.536Z,958.56
2016-03-28T21:38:47.539Z,958.54
2016-03-28T21:39:47.542Z,958.6
2016-03-28T21:40:47.544Z,958.63
2016-03-28T21:41:47.547Z,958.64
2016-03-28T21:42:47.549Z,958.71
2016-03-28T21:43:47.553Z,958.75
2016-03-28T21:44:47.539Z,958.82
2016-03-28T21:45:47.542Z,958.79
2016-03-28T21:46:47.545Z,958.84
2016-03-28T21:47:47.547Z,958.91
2016-03-28T21:48:47.545Z,958.8
2016-03-28T21:49:47.539Z,958.87
2016-03-28T21:50:47.533Z,958.85
2016-03-28T21:51:47.526Z,958.85
2016-03-28T21:52:47.504Z,958.91
2016-03-28T21:53:47.500Z,958.84
2016-03-28T21:54:47.500Z,958.83
2016-03-28T21:55:47.499Z,958.92
2016-03-28T21:56:47.498Z,959.02
2016-03-28T21:57:47.499Z,959.21
2016-03-28T21:58:47.499Z,959.1
2016-03-28T21:59:47.500Z,959.11
2016-03-28T22:00:47.486Z,959.41
2016-03-28T22:01:47.488Z,959.37
2016-03-28T22:02:47.490Z,959.64
2016-03-28T22:03:47.492Z,959.6
2016-03-28T22:04:47.495Z,959.51
2016-03-28T22:05:47.497Z,959.49
2016-03-28T22:06:47.498Z,959.09
2016-03-28T22:07:47.501Z,958.91
2016-03-28T22:08:47.488Z,958.99
2016-03-28T22:09:47.490Z,959.05
2016-03-28T22:10:47.492Z,959.1
2016-03-28T22:11:47.494Z,959.13
2016-03-28T22:12:47.496Z,959.15
2016-03-28T22:13:47.500Z,959.23
2016-03-28T22:14:47.502Z,959.09
2016-03-28T22:15:47.505Z,959.26
2016-03-28T22:16:47.491Z,959.21
2016-03-28T22:17:47.494Z,959.26
2016-03-28T22:18:47.496Z,959.24
2016-03-28T22:19:47.499Z,959.29
2016-03-28T22:20:47.501Z,959.27
2016-03-28T22:21:47.505Z,959.31
2016-03-28T22:22:47.507Z,959.32
2016-03-28T22:23:47.510Z,959.33
2016-03-28T22:24:47.498Z,959.34
2016-03-28T22:25:47.500Z,959.36
2016-03-28T22:26:47.503Z,959.4
2016-03-28T22:27:47.506Z,959.43
2016-03-28T22:28:47.508Z,959.35
2016-03-28T22:29:47.511Z,959.34
2016-03-28T22:30:47.498Z,959.36
2016-03-28T22:31:47.517Z,959.37
2016-03-28T22:32:47.503Z,959.35
2016-03-28T22:33:47.506Z,959.44
2016-03-28T22:34:47.509Z,959.48
2016-03-28T22:35:47.511Z,959.43
2016-03-28T22:36:47.514Z,959.45
2016-03-28T22:37:47.517Z,959.45
2016-03-28T22:38:47.504Z,959.51
2016-03-28T22:39:47.522Z,959.53
2016-03-28T22:40:47.510Z,959.5
2016-03-28T22:41:47.512Z,959.5
2016-03-28T22:42:47.515Z,959.55
2016-03-28T22:43:47.518Z,959.61
2016-03-28T22:44:47.520Z,959.64
2016-03-28T22:45:47.523Z,959.65
2016-03-28T22:46:47.510Z,959.69
2016-03-28T22:47:47.512Z,959.69
2016-03-28T22:48:47.515Z,959.71
2016-03-28T22:49:47.517Z,959.74
2016-03-28T22:50:47.521Z,959.67
2016-03-28T22:51:47.523Z,959.69
2016-03-28T22:52:47.526Z,959.7
2016-03-28T22:53:47.529Z,959.71
2016-03-28T22:54:47.515Z,959.72
2016-03-28T22:55:47.534Z,959.76
2016-03-28T22:56:47.521Z,959.69
2016-03-28T22:57:47.523Z,959.67
2016-03-28T22:58:47.526Z,959.72
2016-03-28T22:59:47.528Z,959.74
2016-03-28T23:00:47.532Z,959.77
2016-03-28T23:01:47.534Z,959.68
2016-03-28T23:02:47.522Z,959.65
2016-03-28T23:03:47.525Z,959.71
2016-03-28T23:04:47.527Z,959.67
2016-03-28T23:05:47.530Z,959.73
2016-03-28T23:06:47.533Z,959.7
2016-03-28T23:07:47.535Z,959.65
2016-03-28T23:08:47.538Z,959.75
2016-03-28T23:09:47.541Z,959.71
2016-03-28T23:10:47.544Z,959.94
2016-03-28T23:11:47.530Z,959.89
2016-03-28T23:12:47.533Z,959.76
2016-03-28T23:13:47.551Z,959.81
2016-03-28T23:14:47.538Z,959.71
2016-03-28T23:15:47.540Z,959.72
2016-03-28T23:16:47.544Z,959.57
2016-03-28T23:17:47.546Z,959.5
2016-03-28T23:18:47.532Z,959.47
2016-03-28T23:19:47.535Z,959.43
2016-03-28T23:20:47.538Z,959.41
2016-03-28T23:21:47.541Z,959.46
2016-03-28T23:22:47.544Z,959.48
2016-03-28T23:23:47.546Z,959.51
2016-03-28T23:24:47.549Z,959.53
2016-03-28T23:25:47.551Z,959.56
2016-03-28T23:26:47.540Z,959.54
2016-03-28T23:27:47.542Z,959.6
2016-03-28T23:28:47.544Z,959.6
2016-03-28T23:29:47.563Z,959.59
2016-03-28T23:30:47.550Z,959.62
2016-03-28T23:31:47.553Z,959.61
2016-03-28T23:32:47.556Z,959.56
2016-03-28T23:33:47.558Z,959.61
2016-03-28T23:34:47.545Z,959.63
2016-03-28T23:35:47.547Z,959.65
2016-03-28T23:36:47.551Z,959.62
2016-03-28T23:37:47.553Z,959.65
2016-03-28T23:38:47.555Z,959.65
2016-03-28T23:39:47.558Z,959.63
2016-03-28T23:40:47.561Z,959.75
2016-03-28T23:41:47.563Z,959.65
2016-03-28T23:42:47.567Z,959.74
2016-03-28T23:43:47.554Z,959.73
2016-03-28T23:44:47.557Z,959.63
2016-03-28T23:45:47.559Z,959.69
2016-03-28T23:46:47.562Z,959.66
2016-03-28T23:47:47.565Z,959.63
2016-03-28T23:48:47.567Z,959.6
2016-03-28T23:49:47.554Z,959.64
2016-03-28T23:50:47.573Z,959.7
2016-03-28T23:51:47.559Z,959.7
2016-03-28T23:52:47.562Z,959.6
2016-03-28T23:53:47.565Z,959.61
2016-03-28T23:54:47.568Z,959.51
2016-03-28T23:55:47.570Z,959.5
2016-03-28T23:56:47.557Z,959.52
2016-03-28T23:57:47.559Z,959.48
2016-03-28T23:58:47.562Z,959.52
2016-03-28T23:59:47.565Z,959.52
